createdAt,value
2022-11-16T00:04:22.947Z,99824.16
2022-11-16T00:09:29.752Z,99840.84
2022-11-16T00:14:34.874Z,99825.06
2022-11-16T00:19:38.113Z,99815.44
2022-11-16T00:24:42.456Z,99817.19
2022-11-16T00:29:45.537Z,99811.00
2022-11-16T00:34:48.527Z,99835.56
2022-11-16T00:39:52.820Z,99825.06
2022-11-16T00:44:56.096Z,99815.47
2022-11-16T00:49:59.398Z,99813.69
2022-11-16T00:55:05.527Z,99813.69
2022-11-16T01:06:09.581Z,99811.13
2022-11-16T01:11:39.929Z,99811.16
2022-11-16T01:16:43.361Z,99815.59
2022-11-16T01:21:46.728Z,99803.31
2022-11-16T01:26:51.587Z,99807.69
2022-11-16T01:31:55.049Z,99804.16
2022-11-16T01:36:58.666Z,99799.81
2022-11-16T01:42:07.405Z,99793.69
2022-11-16T01:47:45.949Z,99788.44
2022-11-16T01:53:01.434Z,99789.31
2022-11-16T01:58:14.394Z,99802.47
2022-11-16T02:03:19.367Z,99793.69
2022-11-16T02:09:04.572Z,99790.16
2022-11-16T02:14:34.947Z,99796.31
2022-11-16T02:20:24.269Z,99777.72
2022-11-16T02:25:56.439Z,99763.56
2022-11-16T02:31:08.783Z,99790.97
2022-11-16T02:36:15.855Z,99799.75
2022-11-16T02:41:53.740Z,99807.59
2022-11-16T02:47:06.373Z,99769.53
2022-11-16T02:52:12.440Z,99789.78
2022-11-16T02:57:41.961Z,99789.75
2022-11-16T03:02:57.660Z,99780.97
2022-11-16T03:08:18.397Z,99783.56
2022-11-16T03:13:39.360Z,99793.25
2022-11-16T03:18:47.092Z,99799.38
2022-11-16T03:23:50.749Z,99805.50
2022-11-16T03:29:02.870Z,99804.59
2022-11-16T03:34:13.592Z,99808.06
2022-11-16T03:39:20.140Z,99786.91
2022-11-16T03:44:23.769Z,99804.44
2022-11-16T03:49:31.185Z,99807.91
2022-11-16T03:54:34.725Z,99822.00
2022-11-16T03:59:38.012Z,99817.53
2022-11-16T04:05:00.562Z,99824.50
2022-11-16T04:10:21.342Z,99820.00
2022-11-16T04:15:42.292Z,99833.94
2022-11-16T04:21:04.491Z,99832.16
2022-11-16T04:26:09.695Z,99824.09
2022-11-16T04:31:30.834Z,99845.84
2022-11-16T04:36:57.780Z,99833.53
2022-11-16T04:42:19.806Z,99834.41
2022-11-16T04:47:26.213Z,99837.84
2022-11-16T04:52:30.674Z,99822.94
2022-11-16T04:57:34.591Z,99838.72
2022-11-16T05:02:39.199Z,99844.72
2022-11-16T05:07:44.118Z,99861.31
2022-11-16T05:12:53.245Z,99869.09
2022-11-16T05:17:58.055Z,99865.47
2022-11-16T05:23:04.173Z,99870.72
2022-11-16T05:28:15.253Z,99868.84
2022-11-16T05:33:24.314Z,99867.75
2022-11-16T05:38:29.504Z,99865.03
2022-11-16T05:43:35.401Z,99864.91
2022-11-16T05:48:48.395Z,99862.13
2022-11-16T05:53:55.988Z,99864.47
2022-11-16T05:59:00.636Z,99862.53
2022-11-16T06:04:04.055Z,99880.72
2022-11-16T06:09:12.674Z,99876.97
2022-11-16T06:14:16.231Z,99884.53
2022-11-16T06:19:20.027Z,99892.16
2022-11-16T06:24:25.130Z,99889.25
2022-11-16T06:29:28.738Z,99883.75
2022-11-16T06:34:33.091Z,99898.34
2022-11-16T06:39:37.786Z,99900.69
2022-11-16T06:44:40.898Z,99909.22
2022-11-16T06:49:47.159Z,99908.09
2022-11-16T06:54:57.841Z,99922.66
2022-11-16T07:00:01.256Z,99926.03
2022-11-16T07:05:10.952Z,99914.41
2022-11-16T07:10:17.414Z,99923.88
2022-11-16T07:15:30.699Z,99930.66
2022-11-16T07:20:46.931Z,99928.88
2022-11-16T07:25:52.177Z,99942.78
2022-11-16T07:31:08.948Z,99938.38
2022-11-16T07:36:14.831Z,99950.63
2022-11-16T07:41:20.564Z,99952.34
2022-11-16T07:46:47.436Z,99953.25
2022-11-16T07:51:52.333Z,99967.22
2022-11-16T07:57:22.780Z,99972.47
2022-11-16T08:02:27.691Z,99976.97
2022-11-16T08:07:34.440Z,99984.81
2022-11-16T08:12:39.195Z,99975.19
2022-11-16T08:17:43.256Z,99981.44
2022-11-16T08:22:49.675Z,99982.38
2022-11-16T08:27:54.490Z,99976.31
2022-11-16T08:32:59.292Z,99976.50
2022-11-16T08:38:03.088Z,99981.22
2022-11-16T08:43:08.369Z,99984.25
2022-11-16T08:48:11.749Z,99979.56
2022-11-16T08:53:15.570Z,99988.88
2022-11-16T08:58:21.194Z,99996.41
2022-11-16T09:03:24.652Z,99995.09
2022-11-16T09:08:27.886Z,99992.81
2022-11-16T09:13:32.446Z,99992.31
2022-11-16T09:18:36.925Z,99997.97
2022-11-16T09:23:40.223Z,99995.75
2022-11-16T09:28:44.612Z,99987.25
2022-11-16T09:33:47.966Z,99992.91
2022-11-16T09:44:29.069Z,99985.75
2022-11-16T09:49:36.722Z,99993.78
2022-11-16T09:54:43.807Z,100000.19
2022-11-16T09:59:51.470Z,99999.44
2022-11-16T10:05:00.632Z,99998.91
2022-11-16T10:10:03.653Z,100000.94
2022-11-16T10:15:35.302Z,100006.47
2022-11-16T10:21:10.827Z,100008.41
2022-11-16T10:26:26.405Z,100003.47
2022-11-16T10:31:45.180Z,100002.66
2022-11-16T10:36:48.498Z,99997.44
2022-11-16T10:41:52.195Z,99987.91
2022-11-16T10:47:05.046Z,99992.31
2022-11-16T10:52:08.483Z,99996.78
2022-11-16T10:57:14.203Z,99993.34
2022-11-16T11:02:34.889Z,99985.50
2022-11-16T11:07:40.175Z,99984.69
2022-11-16T11:13:03.197Z,99989.97
2022-11-16T11:18:28.368Z,99994.22
2022-11-16T11:23:31.799Z,99994.25
2022-11-16T11:28:37.883Z,99993.41
2022-11-16T11:33:50.906Z,99998.63
2022-11-16T11:39:00.375Z,99979.34
2022-11-16T11:44:04.559Z,99976.66
2022-11-16T11:49:16.322Z,99981.06
2022-11-16T11:54:25.882Z,99969.69
2022-11-16T11:59:29.063Z,99960.94
2022-11-16T12:05:08.138Z,99964.50
2022-11-16T12:10:22.669Z,99947.16
2022-11-16T12:15:45.718Z,99940.25
2022-11-16T12:21:01.353Z,99930.56
2022-11-16T12:26:12.614Z,99940.19
2022-11-16T12:31:35.881Z,99933.94
2022-11-16T12:36:49.251Z,99927.13
2022-11-16T12:42:10.520Z,99921.09
2022-11-16T12:47:25.521Z,99907.88
2022-11-16T12:52:56.533Z,99923.00
2022-11-16T12:58:12.238Z,99911.63
2022-11-16T13:03:21.717Z,99903.91
2022-11-16T13:08:37.556Z,99902.09
2022-11-16T13:13:49.652Z,99895.88
2022-11-16T13:18:57.249Z,99889.56
2022-11-16T13:24:14.833Z,99888.25
2022-11-16T13:29:30.328Z,99884.84
2022-11-16T13:34:35.584Z,99883.94
2022-11-16T13:40:21.550Z,99882.19
2022-11-16T13:45:25.189Z,99885.59
2022-11-16T13:50:37.669Z,99880.97
2022-11-16T13:55:46.317Z,99877.38
2022-11-16T14:00:59.012Z,99867.56
2022-11-16T14:06:02.636Z,99855.97
2022-11-16T14:11:29.085Z,99861.06
2022-11-16T14:16:45.116Z,99859.19
2022-11-16T14:21:54.148Z,99862.66
2022-11-16T14:27:15.689Z,99845.19
2022-11-16T14:32:23.326Z,99840.81
2022-11-16T14:37:33.665Z,99837.28
2022-11-16T14:43:10.008Z,99839.84
2022-11-16T14:48:17.375Z,99830.16
2022-11-16T14:53:21.203Z,99815.19
2022-11-16T14:58:25.799Z,99803.84
2022-11-16T15:03:34.870Z,99792.34
2022-11-16T15:08:44.699Z,99786.91
2022-11-16T15:13:50.002Z,99770.00
2022-11-16T15:19:00.693Z,99776.75
2022-11-16T15:29:28.918Z,99752.66
2022-11-16T15:34:32.595Z,99766.53
2022-11-16T15:39:37.794Z,99767.19
2022-11-16T15:44:43.782Z,99752.16
2022-11-16T15:49:53.195Z,99743.28
2022-11-16T15:55:04.918Z,99729.94
2022-11-16T16:00:23.533Z,99726.31
2022-11-16T16:05:35.210Z,99715.66
2022-11-16T16:10:38.368Z,99713.81
2022-11-16T16:15:42.965Z,99711.88
2022-11-16T16:20:49.415Z,99712.53
2022-11-16T16:25:55.748Z,99709.75
2022-11-16T16:31:00.231Z,99708.66
2022-11-16T16:36:03.498Z,99692.72
2022-11-16T16:41:07.753Z,99686.53
2022-11-16T16:46:12.943Z,99686.34
2022-11-16T16:51:16.112Z,99692.41
2022-11-16T16:56:20.038Z,99680.00
2022-11-16T17:01:24.591Z,99665.88
2022-11-16T17:06:27.701Z,99669.25
2022-11-16T17:11:34.185Z,99678.84
2022-11-16T17:16:38.980Z,99673.47
2022-11-16T17:21:42.095Z,99669.91
2022-11-16T17:26:48.430Z,99660.22
2022-11-16T17:31:53.389Z,99648.72
2022-11-16T17:36:56.952Z,99640.69
2022-11-16T17:42:00.153Z,99633.53
2022-11-16T17:47:04.735Z,99635.13
2022-11-16T17:52:07.704Z,99636.84
2022-11-16T17:57:11.019Z,99636.84
2022-11-16T18:02:15.419Z,99634.16
2022-11-16T18:07:18.542Z,99630.56
2022-11-16T18:12:21.781Z,99629.59
2022-11-16T18:17:26.417Z,99627.88
2022-11-16T18:22:29.630Z,99622.63
2022-11-16T18:27:32.756Z,99636.56
2022-11-16T18:32:37.270Z,99636.66
2022-11-16T18:37:40.485Z,99633.28
2022-11-16T18:42:43.489Z,99623.81
2022-11-16T18:47:47.946Z,99623.03
2022-11-16T18:52:51.357Z,99610.00
2022-11-16T18:57:54.442Z,99588.19
2022-11-16T19:02:58.850Z,99573.41
2022-11-16T19:08:01.876Z,99567.41
2022-11-16T19:13:06.119Z,99559.59
2022-11-16T19:18:23.138Z,99548.28
2022-11-16T19:23:26.354Z,99522.97
2022-11-16T19:28:29.863Z,99506.41
2022-11-16T19:33:34.485Z,99502.13
2022-11-16T19:38:38.208Z,99493.34
2022-11-16T19:43:41.687Z,99472.34
2022-11-16T19:48:47.224Z,99459.16
2022-11-16T19:53:50.389Z,99446.91
2022-11-16T19:58:53.910Z,99428.50
2022-11-16T20:03:59.853Z,99419.78
2022-11-16T20:09:08.734Z,99413.66
2022-11-16T20:14:13.749Z,99392.66
2022-11-16T20:19:20.606Z,99390.94
2022-11-16T20:24:23.683Z,99389.19
2022-11-16T20:29:26.856Z,99377.88
2022-11-16T20:34:31.247Z,99361.25
2022-11-16T20:39:34.410Z,99355.13
2022-11-16T20:44:37.436Z,99352.59
2022-11-16T20:49:41.962Z,99331.59
2022-11-16T20:54:45.345Z,99315.00
2022-11-16T20:59:48.454Z,99308.91
2022-11-16T21:04:58.911Z,99308.09
2022-11-16T21:10:21.384Z,99298.53
2022-11-16T21:15:24.416Z,99284.50
2022-11-16T21:20:28.938Z,99264.41
2022-11-16T21:25:32.035Z,99257.47
2022-11-16T21:30:35.089Z,99261.03
2022-11-16T21:35:41.615Z,99249.69
2022-11-16T21:40:45.334Z,99239.22
2022-11-16T21:45:49.543Z,99226.06
2022-11-16T21:51:02.467Z,99208.34
2022-11-16T21:56:07.213Z,99195.97
2022-11-16T22:01:11.690Z,99176.63
2022-11-16T22:06:34.931Z,99159.13
2022-11-16T22:11:38.235Z,99130.19
2022-11-16T22:16:41.346Z,99103.09
2022-11-16T22:21:45.896Z,99090.84
2022-11-16T22:26:49.181Z,99076.88
2022-11-16T22:31:52.233Z,99051.50
2022-11-16T22:36:56.669Z,99029.66
2022-11-16T22:41:59.983Z,99025.28
2022-11-16T22:47:03.041Z,99029.66
2022-11-16T22:52:07.524Z,99013.91
2022-11-16T22:57:10.713Z,98991.19
2022-11-16T23:02:13.846Z,98977.25
2022-11-16T23:07:18.360Z,98965.03
2022-11-16T23:12:38.916Z,98934.41
2022-11-16T23:17:41.981Z,98912.53
2022-11-16T23:23:03.707Z,98902.94
2022-11-16T23:28:08.906Z,98880.22
2022-11-16T23:33:12.528Z,98867.97
2022-11-16T23:38:17.373Z,98818.19
2022-11-16T23:43:37.953Z,98805.91
2022-11-16T23:48:41.466Z,98795.44
2022-11-16T23:53:46.042Z,98779.72
2022-11-16T23:58:49.605Z,98770.06
